sensor_id;sensor_type;location;lat;lon;timestamp;P1;durP1;ratioP1;P2;durP2;ratioP2
45322;SDS011;31382;50.200;8.674;2023-04-25T00:03:12;9.88;;;6.30;;
45322;SDS011;31382;50.200;8.674;2023-04-25T00:08:13;13.73;;;7.15;;
45322;SDS011;31382;50.200;8.674;2023-04-25T00:13:15;13.13;;;6.68;;
45322;SDS011;31382;50.200;8.674;2023-04-25T00:18:18;13.30;;;7.25;;
45322;SDS011;31382;50.200;8.674;2023-04-25T00:23:21;13.32;;;7.22;;
45322;SDS011;31382;50.200;8.674;2023-04-25T00:28:22;24.27;;;9.02;;
45322;SDS011;31382;50.200;8.674;2023-04-25T00:33:23;13.38;;;6.60;;
45322;SDS011;31382;50.200;8.674;2023-04-25T00:38:25;11.13;;;6.45;;
45322;SDS011;31382;50.200;8.674;2023-04-25T00:43:27;10.43;;;6.57;;
45322;SDS011;31382;50.200;8.674;2023-04-25T00:48:31;10.32;;;6.45;;
45322;SDS011;31382;50.200;8.674;2023-04-25T00:53:32;15.82;;;7.47;;
45322;SDS011;31382;50.200;8.674;2023-04-25T00:58:34;12.13;;;7.35;;
45322;SDS011;31382;50.200;8.674;2023-04-25T01:03:37;14.30;;;7.65;;
45322;SDS011;31382;50.200;8.674;2023-04-25T01:08:44;14.32;;;6.95;;
45322;SDS011;31382;50.200;8.674;2023-04-25T01:13:45;11.10;;;6.45;;
45322;SDS011;31382;50.200;8.674;2023-04-25T01:18:47;11.18;;;6.60;;
45322;SDS011;31382;50.200;8.674;2023-04-25T01:23:49;10.57;;;6.40;;
45322;SDS011;31382;50.200;8.674;2023-04-25T01:28:51;12.25;;;6.13;;
45322;SDS011;31382;50.200;8.674;2023-04-25T01:33:53;10.60;;;6.20;;
45322;SDS011;31382;50.200;8.674;2023-04-25T01:38:54;8.15;;;4.78;;
45322;SDS011;31382;50.200;8.674;2023-04-25T01:43:56;9.93;;;5.32;;
45322;SDS011;31382;50.200;8.674;2023-04-25T01:48:58;6.82;;;3.90;;
45322;SDS011;31382;50.200;8.674;2023-04-25T01:53:59;10.00;;;4.78;;
45322;SDS011;31382;50.200;8.674;2023-04-25T01:59:01;7.93;;;4.55;;
45322;SDS011;31382;50.200;8.674;2023-04-25T02:04:03;11.80;;;5.43;;
45322;SDS011;31382;50.200;8.674;2023-04-25T02:09:04;10.55;;;5.32;;
45322;SDS011;31382;50.200;8.674;2023-04-25T02:14:06;8.50;;;5.07;;
45322;SDS011;31382;50.200;8.674;2023-04-25T02:19:07;11.00;;;5.47;;
45322;SDS011;31382;50.200;8.674;2023-04-25T02:24:09;13.10;;;6.15;;
45322;SDS011;31382;50.200;8.674;2023-04-25T02:29:10;14.95;;;6.00;;
45322;SDS011;31382;50.200;8.674;2023-04-25T02:34:11;10.48;;;5.15;;
45322;SDS011;31382;50.200;8.674;2023-04-25T02:39:13;11.65;;;4.95;;
45322;SDS011;31382;50.200;8.674;2023-04-25T02:44:14;13.52;;;5.95;;
45322;SDS011;31382;50.200;8.674;2023-04-25T02:49:16;9.85;;;6.00;;
45322;SDS011;31382;50.200;8.674;2023-04-25T02:54:17;11.75;;;5.80;;
45322;SDS011;31382;50.200;8.674;2023-04-25T02:59:18;12.10;;;5.93;;
45322;SDS011;31382;50.200;8.674;2023-04-25T03:04:20;11.10;;;6.40;;
45322;SDS011;31382;50.200;8.674;2023-04-25T03:09:24;12.60;;;5.93;;
45322;SDS011;31382;50.200;8.674;2023-04-25T03:14:26;12.07;;;5.40;;
45322;SDS011;31382;50.200;8.674;2023-04-25T03:19:27;10.85;;;5.28;;
45322;SDS011;31382;50.200;8.674;2023-04-25T03:24:29;13.13;;;5.53;;
45322;SDS011;31382;50.200;8.674;2023-04-25T03:29:30;12.80;;;4.93;;
45322;SDS011;31382;50.200;8.674;2023-04-25T03:34:31;7.43;;;4.18;;
45322;SDS011;31382;50.200;8.674;2023-04-25T03:39:33;13.15;;;4.55;;
45322;SDS011;31382;50.200;8.674;2023-04-25T03:44:34;8.57;;;3.90;;
45322;SDS011;31382;50.200;8.674;2023-04-25T03:49:35;8.90;;;4.07;;
45322;SDS011;31382;50.200;8.674;2023-04-25T03:54:38;9.27;;;3.22;;
45322;SDS011;31382;50.200;8.674;2023-04-25T03:59:39;15.68;;;3.95;;
45322;SDS011;31382;50.200;8.674;2023-04-25T04:04:41;11.00;;;3.78;;
45322;SDS011;31382;50.200;8.674;2023-04-25T04:09:43;8.52;;;3.58;;
45322;SDS011;31382;50.200;8.674;2023-04-25T04:14:44;11.43;;;4.05;;
45322;SDS011;31382;50.200;8.674;2023-04-25T04:19:45;15.10;;;4.20;;
45322;SDS011;31382;50.200;8.674;2023-04-25T04:24:47;11.52;;;4.10;;
45322;SDS011;31382;50.200;8.674;2023-04-25T04:29:48;9.00;;;3.10;;
45322;SDS011;31382;50.200;8.674;2023-04-25T04:34:51;9.23;;;3.63;;
45322;SDS011;31382;50.200;8.674;2023-04-25T04:39:53;13.57;;;3.38;;
45322;SDS011;31382;50.200;8.674;2023-04-25T04:44:54;13.40;;;3.75;;
45322;SDS011;31382;50.200;8.674;2023-04-25T04:49:56;11.88;;;4.72;;
45322;SDS011;31382;50.200;8.674;2023-04-25T04:54:58;10.48;;;4.05;;
45322;SDS011;31382;50.200;8.674;2023-04-25T04:59:59;10.35;;;4.28;;
45322;SDS011;31382;50.200;8.674;2023-04-25T05:05:01;11.45;;;4.45;;
45322;SDS011;31382;50.200;8.674;2023-04-25T05:10:03;11.65;;;4.05;;
45322;SDS011;31382;50.200;8.674;2023-04-25T05:15:04;10.30;;;3.88;;
45322;SDS011;31382;50.200;8.674;2023-04-25T05:20:06;12.45;;;3.97;;
45322;SDS011;31382;50.200;8.674;2023-04-25T05:25:10;6.80;;;3.47;;
45322;SDS011;31382;50.200;8.674;2023-04-25T05:30:12;12.50;;;3.63;;
45322;SDS011;31382;50.200;8.674;2023-04-25T05:35:13;8.57;;;2.55;;
45322;SDS011;31382;50.200;8.674;2023-04-25T05:40:14;9.60;;;3.40;;
45322;SDS011;31382;50.200;8.674;2023-04-25T05:45:16;8.98;;;2.72;;
45322;SDS011;31382;50.200;8.674;2023-04-25T05:50:18;8.95;;;3.10;;
45322;SDS011;31382;50.200;8.674;2023-04-25T05:55:19;10.68;;;3.10;;
45322;SDS011;31382;50.200;8.674;2023-04-25T06:00:21;5.90;;;3.47;;
45322;SDS011;31382;50.200;8.674;2023-04-25T06:05:23;8.75;;;2.72;;
45322;SDS011;31382;50.200;8.674;2023-04-25T06:10:26;5.35;;;1.98;;
45322;SDS011;31382;50.200;8.674;2023-04-25T06:15:27;5.50;;;1.33;;
45322;SDS011;31382;50.200;8.674;2023-04-25T06:20:29;5.60;;;1.50;;
45322;SDS011;31382;50.200;8.674;2023-04-25T06:25:30;5.47;;;1.13;;
45322;SDS011;31382;50.200;8.674;2023-04-25T06:30:32;3.22;;;0.98;;
45322;SDS011;31382;50.200;8.674;2023-04-25T06:35:33;7.97;;;1.60;;
45322;SDS011;31382;50.200;8.674;2023-04-25T06:40:35;5.47;;;1.20;;
45322;SDS011;31382;50.200;8.674;2023-04-25T06:45:36;5.80;;;1.13;;
45322;SDS011;31382;50.200;8.674;2023-04-25T06:50:38;4.97;;;1.00;;
45322;SDS011;31382;50.200;8.674;2023-04-25T06:55:39;5.45;;;1.90;;
45322;SDS011;31382;50.200;8.674;2023-04-25T07:00:41;4.28;;;1.20;;
45322;SDS011;31382;50.200;8.674;2023-04-25T07:05:43;7.15;;;2.05;;
45322;SDS011;31382;50.200;8.674;2023-04-25T07:10:46;7.05;;;1.50;;
45322;SDS011;31382;50.200;8.674;2023-04-25T07:15:50;7.85;;;2.67;;
45322;SDS011;31382;50.200;8.674;2023-04-25T07:20:51;3.50;;;1.63;;
45322;SDS011;31382;50.200;8.674;2023-04-25T07:25:53;9.73;;;1.88;;
45322;SDS011;31382;50.200;8.674;2023-04-25T07:30:54;5.47;;;1.83;;
45322;SDS011;31382;50.200;8.674;2023-04-25T07:35:55;9.15;;;1.83;;
45322;SDS011;31382;50.200;8.674;2023-04-25T07:40:57;5.93;;;1.38;;
45322;SDS011;31382;50.200;8.674;2023-04-25T07:45:58;3.95;;;1.20;;
45322;SDS011;31382;50.200;8.674;2023-04-25T07:51:00;3.40;;;1.48;;
45322;SDS011;31382;50.200;8.674;2023-04-25T07:56:01;3.22;;;1.20;;
45322;SDS011;31382;50.200;8.674;2023-04-25T08:01:03;3.22;;;1.38;;
45322;SDS011;31382;50.200;8.674;2023-04-25T08:06:04;5.32;;;2.38;;
45322;SDS011;31382;50.200;8.674;2023-04-25T08:11:08;3.00;;;1.48;;
45322;SDS011;31382;50.200;8.674;2023-04-25T08:16:10;7.68;;;1.75;;
45322;SDS011;31382;50.200;8.674;2023-04-25T08:21:11;6.75;;;2.15;;
45322;SDS011;31382;50.200;8.674;2023-04-25T08:26:13;5.10;;;2.05;;
45322;SDS011;31382;50.200;8.674;2023-04-25T08:31:14;4.30;;;2.03;;
45322;SDS011;31382;50.200;8.674;2023-04-25T08:36:16;5.63;;;1.63;;
45322;SDS011;31382;50.200;8.674;2023-04-25T08:41:38;4.05;;;2.13;;
45322;SDS011;31382;50.200;8.674;2023-04-25T08:46:41;6.18;;;2.25;;
45322;SDS011;31382;50.200;8.674;2023-04-25T08:51:44;3.88;;;1.88;;
45322;SDS011;31382;50.200;8.674;2023-04-25T08:56:48;4.32;;;1.60;;
45322;SDS011;31382;50.200;8.674;2023-04-25T09:01:50;5.80;;;1.60;;
45322;SDS011;31382;50.200;8.674;2023-04-25T09:06:52;7.53;;;2.50;;
45322;SDS011;31382;50.200;8.674;2023-04-25T09:11:54;4.88;;;2.30;;
45322;SDS011;31382;50.200;8.674;2023-04-25T09:21:57;3.05;;;2.60;;
45322;SDS011;31382;50.200;8.674;2023-04-25T09:27:02;5.78;;;3.40;;
45322;SDS011;31382;50.200;8.674;2023-04-25T09:32:20;6.50;;;2.33;;
45322;SDS011;31382;50.200;8.674;2023-04-25T09:37:29;5.72;;;2.17;;
45322;SDS011;31382;50.200;8.674;2023-04-25T09:42:31;2.42;;;1.65;;
45322;SDS011;31382;50.200;8.674;2023-04-25T09:47:36;4.82;;;1.33;;
45322;SDS011;31382;50.200;8.674;2023-04-25T09:52:39;3.50;;;1.13;;
45322;SDS011;31382;50.200;8.674;2023-04-25T09:57:40;4.68;;;1.60;;
45322;SDS011;31382;50.200;8.674;2023-04-25T10:02:42;6.55;;;1.80;;
45322;SDS011;31382;50.200;8.674;2023-04-25T10:07:47;2.45;;;1.35;;
45322;SDS011;31382;50.200;8.674;2023-04-25T10:12:49;4.68;;;1.77;;
45322;SDS011;31382;50.200;8.674;2023-04-25T10:17:50;6.90;;;2.15;;
45322;SDS011;31382;50.200;8.674;2023-04-25T10:22:53;2.45;;;1.60;;
45322;SDS011;31382;50.200;8.674;2023-04-25T10:27:57;6.53;;;1.50;;
45322;SDS011;31382;50.200;8.674;2023-04-25T10:33:00;4.07;;;1.55;;
45322;SDS011;31382;50.200;8.674;2023-04-25T10:38:05;3.83;;;1.70;;
45322;SDS011;31382;50.200;8.674;2023-04-25T10:48:45;9.85;;;1.77;;
45322;SDS011;31382;50.200;8.674;2023-04-25T10:59:10;2.90;;;1.35;;
45322;SDS011;31382;50.200;8.674;2023-04-25T11:04:29;4.70;;;1.00;;
45322;SDS011;31382;50.200;8.674;2023-04-25T11:09:32;3.92;;;1.25;;
45322;SDS011;31382;50.200;8.674;2023-04-25T11:14:36;3.47;;;0.93;;
45322;SDS011;31382;50.200;8.674;2023-04-25T11:19:37;3.40;;;0.95;;
45322;SDS011;31382;50.200;8.674;2023-04-25T11:24:38;2.97;;;1.08;;
45322;SDS011;31382;50.200;8.674;2023-04-25T11:29:40;2.88;;;0.90;;
45322;SDS011;31382;50.200;8.674;2023-04-25T11:34:43;5.72;;;1.00;;
45322;SDS011;31382;50.200;8.674;2023-04-25T11:39:46;3.75;;;0.90;;
45322;SDS011;31382;50.200;8.674;2023-04-25T11:44:48;2.60;;;1.33;;
45322;SDS011;31382;50.200;8.674;2023-04-25T11:49:52;2.15;;;1.23;;
45322;SDS011;31382;50.200;8.674;2023-04-25T11:54:54;2.28;;;0.50;;
45322;SDS011;31382;50.200;8.674;2023-04-25T12:00:04;2.88;;;1.00;;
45322;SDS011;31382;50.200;8.674;2023-04-25T12:05:08;4.95;;;1.08;;
45322;SDS011;31382;50.200;8.674;2023-04-25T12:10:30;8.18;;;0.77;;
45322;SDS011;31382;50.200;8.674;2023-04-25T12:15:32;3.03;;;1.00;;
45322;SDS011;31382;50.200;8.674;2023-04-25T12:20:34;6.45;;;1.52;;
45322;SDS011;31382;50.200;8.674;2023-04-25T12:25:40;2.55;;;0.90;;
45322;SDS011;31382;50.200;8.674;2023-04-25T12:31:02;4.47;;;1.17;;
45322;SDS011;31382;50.200;8.674;2023-04-25T12:36:05;4.70;;;1.13;;
45322;SDS011;31382;50.200;8.674;2023-04-25T12:41:12;6.97;;;1.27;;
45322;SDS011;31382;50.200;8.674;2023-04-25T12:46:13;9.85;;;1.15;;
45322;SDS011;31382;50.200;8.674;2023-04-25T12:51:14;4.65;;;0.90;;
45322;SDS011;31382;50.200;8.674;2023-04-25T12:56:16;1.35;;;0.60;;
45322;SDS011;31382;50.200;8.674;2023-04-25T13:01:17;3.17;;;0.65;;
45322;SDS011;31382;50.200;8.674;2023-04-25T13:06:19;4.50;;;1.20;;
45322;SDS011;31382;50.200;8.674;2023-04-25T13:11:21;4.78;;;1.08;;
45322;SDS011;31382;50.200;8.674;2023-04-25T13:16:23;4.82;;;0.90;;
45322;SDS011;31382;50.200;8.674;2023-04-25T13:21:24;3.55;;;0.80;;
45322;SDS011;31382;50.200;8.674;2023-04-25T13:26:26;4.05;;;1.02;;
45322;SDS011;31382;50.200;8.674;2023-04-25T13:31:27;2.72;;;1.08;;
45322;SDS011;31382;50.200;8.674;2023-04-25T13:36:29;4.13;;;0.68;;
45322;SDS011;31382;50.200;8.674;2023-04-25T13:41:30;2.65;;;1.20;;
45322;SDS011;31382;50.200;8.674;2023-04-25T13:46:32;10.88;;;0.90;;
45322;SDS011;31382;50.200;8.674;2023-04-25T13:51:47;1.80;;;0.70;;
45322;SDS011;31382;50.200;8.674;2023-04-25T13:56:49;4.75;;;1.67;;
45322;SDS011;31382;50.200;8.674;2023-04-25T14:01:51;6.90;;;0.98;;
45322;SDS011;31382;50.200;8.674;2023-04-25T14:06:53;1.35;;;0.80;;
45322;SDS011;31382;50.200;8.674;2023-04-25T14:11:54;1.80;;;0.80;;
45322;SDS011;31382;50.200;8.674;2023-04-25T14:16:56;3.08;;;0.75;;
45322;SDS011;31382;50.200;8.674;2023-04-25T14:21:58;3.90;;;1.00;;
45322;SDS011;31382;50.200;8.674;2023-04-25T14:26:59;5.93;;;0.60;;
45322;SDS011;31382;50.200;8.674;2023-04-25T14:32:01;4.05;;;0.68;;
45322;SDS011;31382;50.200;8.674;2023-04-25T14:37:03;2.75;;;0.77;;
45322;SDS011;31382;50.200;8.674;2023-04-25T14:42:05;2.95;;;0.50;;
45322;SDS011;31382;50.200;8.674;2023-04-25T14:47:06;3.97;;;0.57;;
45322;SDS011;31382;50.200;8.674;2023-04-25T14:52:08;6.03;;;0.60;;
45322;SDS011;31382;50.200;8.674;2023-04-25T14:57:09;6.15;;;0.60;;
45322;SDS011;31382;50.200;8.674;2023-04-25T15:02:10;4.07;;;0.55;;
45322;SDS011;31382;50.200;8.674;2023-04-25T15:07:12;1.88;;;1.15;;
45322;SDS011;31382;50.200;8.674;2023-04-25T15:12:14;3.50;;;0.60;;
45322;SDS011;31382;50.200;8.674;2023-04-25T15:17:15;2.25;;;0.40;;
45322;SDS011;31382;50.200;8.674;2023-04-25T15:22:17;2.60;;;0.55;;
45322;SDS011;31382;50.200;8.674;2023-04-25T15:27:18;2.92;;;0.93;;
45322;SDS011;31382;50.200;8.674;2023-04-25T15:32:19;3.10;;;0.40;;
45322;SDS011;31382;50.200;8.674;2023-04-25T15:37:22;2.90;;;0.50;;
45322;SDS011;31382;50.200;8.674;2023-04-25T15:42:23;3.38;;;1.15;;
45322;SDS011;31382;50.200;8.674;2023-04-25T15:47:26;2.90;;;0.50;;
45322;SDS011;31382;50.200;8.674;2023-04-25T15:52:27;3.35;;;0.60;;
45322;SDS011;31382;50.200;8.674;2023-04-25T15:57:29;1.67;;;0.50;;
45322;SDS011;31382;50.200;8.674;2023-04-25T16:02:30;4.00;;;0.50;;
45322;SDS011;31382;50.200;8.674;2023-04-25T16:07:32;5.25;;;0.60;;
45322;SDS011;31382;50.200;8.674;2023-04-25T16:12:33;6.68;;;0.57;;
45322;SDS011;31382;50.200;8.674;2023-04-25T16:17:36;3.97;;;0.47;;
45322;SDS011;31382;50.200;8.674;2023-04-25T16:22:38;2.67;;;0.50;;
45322;SDS011;31382;50.200;8.674;2023-04-25T16:27:40;4.63;;;0.60;;
45322;SDS011;31382;50.200;8.674;2023-04-25T16:32:42;4.82;;;0.73;;
45322;SDS011;31382;50.200;8.674;2023-04-25T16:37:45;3.30;;;0.65;;
45322;SDS011;31382;50.200;8.674;2023-04-25T16:42:47;3.88;;;0.60;;
45322;SDS011;31382;50.200;8.674;2023-04-25T16:47:49;2.80;;;0.40;;
45322;SDS011;31382;50.200;8.674;2023-04-25T16:52:50;1.88;;;0.70;;
45322;SDS011;31382;50.200;8.674;2023-04-25T16:57:52;3.15;;;0.57;;
45322;SDS011;31382;50.200;8.674;2023-04-25T17:02:53;2.33;;;0.40;;
45322;SDS011;31382;50.200;8.674;2023-04-25T17:07:55;2.90;;;0.50;;
45322;SDS011;31382;50.200;8.674;2023-04-25T17:12:56;6.63;;;1.38;;
45322;SDS011;31382;50.200;8.674;2023-04-25T17:17:58;2.50;;;0.50;;
45322;SDS011;31382;50.200;8.674;2023-04-25T17:23:00;2.95;;;0.57;;
45322;SDS011;31382;50.200;8.674;2023-04-25T17:28:02;4.38;;;0.90;;
45322;SDS011;31382;50.200;8.674;2023-04-25T17:33:03;5.45;;;0.73;;
45322;SDS011;31382;50.200;8.674;2023-04-25T17:38:06;2.78;;;0.85;;
45322;SDS011;31382;50.200;8.674;2023-04-25T17:43:08;3.20;;;0.45;;
45322;SDS011;31382;50.200;8.674;2023-04-25T17:48:10;2.40;;;1.02;;
45322;SDS011;31382;50.200;8.674;2023-04-25T17:53:11;1.92;;;0.50;;
45322;SDS011;31382;50.200;8.674;2023-04-25T17:58:12;3.88;;;0.60;;
45322;SDS011;31382;50.200;8.674;2023-04-25T18:03:14;6.00;;;0.70;;
45322;SDS011;31382;50.200;8.674;2023-04-25T18:08:16;5.35;;;0.70;;
45322;SDS011;31382;50.200;8.674;2023-04-25T18:13:18;6.10;;;1.55;;
45322;SDS011;31382;50.200;8.674;2023-04-25T18:18:19;1.20;;;0.47;;
45322;SDS011;31382;50.200;8.674;2023-04-25T18:23:25;2.45;;;0.55;;
45322;SDS011;31382;50.200;8.674;2023-04-25T18:28:27;7.05;;;0.38;;
45322;SDS011;31382;50.200;8.674;2023-04-25T18:33:30;5.55;;;0.40;;
45322;SDS011;31382;50.200;8.674;2023-04-25T18:38:31;3.90;;;1.23;;
45322;SDS011;31382;50.200;8.674;2023-04-25T18:43:36;1.42;;;0.60;;
45322;SDS011;31382;50.200;8.674;2023-04-25T18:48:37;6.05;;;0.52;;
45322;SDS011;31382;50.200;8.674;2023-04-25T18:53:39;4.32;;;0.60;;
45322;SDS011;31382;50.200;8.674;2023-04-25T18:58:41;2.53;;;0.43;;
45322;SDS011;31382;50.200;8.674;2023-04-25T19:03:43;3.05;;;0.50;;
45322;SDS011;31382;50.200;8.674;2023-04-25T19:08:44;1.00;;;0.40;;
45322;SDS011;31382;50.200;8.674;2023-04-25T19:13:49;1.88;;;0.50;;
45322;SDS011;31382;50.200;8.674;2023-04-25T19:18:52;3.05;;;0.60;;
45322;SDS011;31382;50.200;8.674;2023-04-25T19:23:55;3.25;;;0.60;;
45322;SDS011;31382;50.200;8.674;2023-04-25T19:29:06;2.88;;;0.77;;
45322;SDS011;31382;50.200;8.674;2023-04-25T19:34:10;3.95;;;0.82;;
45322;SDS011;31382;50.200;8.674;2023-04-25T19:39:12;3.08;;;1.02;;
45322;SDS011;31382;50.200;8.674;2023-04-25T19:44:14;7.97;;;0.60;;
45322;SDS011;31382;50.200;8.674;2023-04-25T19:49:16;1.90;;;0.57;;
45322;SDS011;31382;50.200;8.674;2023-04-25T19:54:17;7.03;;;0.63;;
45322;SDS011;31382;50.200;8.674;2023-04-25T19:59:18;3.97;;;0.60;;
45322;SDS011;31382;50.200;8.674;2023-04-25T20:04:20;2.85;;;0.50;;
45322;SDS011;31382;50.200;8.674;2023-04-25T20:09:21;3.30;;;0.50;;
45322;SDS011;31382;50.200;8.674;2023-04-25T20:14:23;4.03;;;0.40;;
45322;SDS011;31382;50.200;8.674;2023-04-25T20:19:24;12.00;;;3.22;;
45322;SDS011;31382;50.200;8.674;2023-04-25T20:24:26;2.00;;;0.50;;
45322;SDS011;31382;50.200;8.674;2023-04-25T20:29:27;3.45;;;0.45;;
45322;SDS011;31382;50.200;8.674;2023-04-25T20:34:28;5.32;;;0.50;;
45322;SDS011;31382;50.200;8.674;2023-04-25T20:39:31;6.00;;;0.50;;
45322;SDS011;31382;50.200;8.674;2023-04-25T20:44:33;4.57;;;0.55;;
45322;SDS011;31382;50.200;8.674;2023-04-25T20:49:34;2.42;;;1.08;;
45322;SDS011;31382;50.200;8.674;2023-04-25T20:54:36;2.33;;;0.50;;
45322;SDS011;31382;50.200;8.674;2023-04-25T20:59:38;1.40;;;0.65;;
45322;SDS011;31382;50.200;8.674;2023-04-25T21:04:40;1.27;;;0.60;;
45322;SDS011;31382;50.200;8.674;2023-04-25T21:09:42;2.03;;;0.52;;
45322;SDS011;31382;50.200;8.674;2023-04-25T21:14:45;5.40;;;1.15;;
45322;SDS011;31382;50.200;8.674;2023-04-25T21:19:46;2.50;;;0.70;;
45322;SDS011;31382;50.200;8.674;2023-04-25T21:24:48;5.30;;;2.00;;
45322;SDS011;31382;50.200;8.674;2023-04-25T21:29:50;4.15;;;0.73;;
45322;SDS011;31382;50.200;8.674;2023-04-25T21:34:52;3.55;;;0.70;;
45322;SDS011;31382;50.200;8.674;2023-04-25T21:39:53;6.43;;;1.08;;
45322;SDS011;31382;50.200;8.674;2023-04-25T21:44:54;3.35;;;0.60;;
45322;SDS011;31382;50.200;8.674;2023-04-25T21:49:56;1.73;;;0.55;;
45322;SDS011;31382;50.200;8.674;2023-04-25T21:54:59;3.30;;;0.60;;
45322;SDS011;31382;50.200;8.674;2023-04-25T22:00:01;5.05;;;1.15;;
45322;SDS011;31382;50.200;8.674;2023-04-25T22:05:04;3.00;;;0.63;;
45322;SDS011;31382;50.200;8.674;2023-04-25T22:10:06;4.68;;;1.33;;
45322;SDS011;31382;50.200;8.674;2023-04-25T22:15:08;3.45;;;1.15;;
45322;SDS011;31382;50.200;8.674;2023-04-25T22:20:10;5.53;;;1.15;;
45322;SDS011;31382;50.200;8.674;2023-04-25T22:25:13;2.85;;;0.90;;
45322;SDS011;31382;50.200;8.674;2023-04-25T22:30:15;2.78;;;1.42;;
45322;SDS011;31382;50.200;8.674;2023-04-25T22:35:17;4.85;;;0.82;;
45322;SDS011;31382;50.200;8.674;2023-04-25T22:40:19;2.25;;;0.80;;
45322;SDS011;31382;50.200;8.674;2023-04-25T22:45:20;5.25;;;1.33;;
45322;SDS011;31382;50.200;8.674;2023-04-25T22:50:22;2.30;;;1.10;;
45322;SDS011;31382;50.200;8.674;2023-04-25T22:55:23;5.15;;;2.15;;
45322;SDS011;31382;50.200;8.674;2023-04-25T23:00:26;3.30;;;1.92;;
45322;SDS011;31382;50.200;8.674;2023-04-25T23:05:30;3.13;;;1.05;;
45322;SDS011;31382;50.200;8.674;2023-04-25T23:10:32;4.25;;;1.48;;
45322;SDS011;31382;50.200;8.674;2023-04-25T23:15:34;5.25;;;1.95;;
45322;SDS011;31382;50.200;8.674;2023-04-25T23:20:35;5.80;;;1.25;;
45322;SDS011;31382;50.200;8.674;2023-04-25T23:25:37;5.90;;;2.08;;
45322;SDS011;31382;50.200;8.674;2023-04-25T23:30:41;1.45;;;1.08;;
45322;SDS011;31382;50.200;8.674;2023-04-25T23:35:43;2.75;;;1.10;;
45322;SDS011;31382;50.200;8.674;2023-04-25T23:40:44;5.60;;;1.10;;
45322;SDS011;31382;50.200;8.674;2023-04-25T23:45:46;4.43;;;1.80;;
45322;SDS011;31382;50.200;8.674;2023-04-25T23:50:47;7.40;;;1.60;;
45322;SDS011;31382;50.200;8.674;2023-04-25T23:55:48;4.97;;;1.58;;
